sensor_id;sensor_type;location;lat;lon;timestamp;P1;durP1;ratioP1;P2;durP2;ratioP2
47912;SDS011;33676;51.006;17.180;2023-04-24T00:01:10;17.50;;;15.70;;
47912;SDS011;33676;51.006;17.180;2023-04-24T00:03:38;16.50;;;14.90;;
47912;SDS011;33676;51.006;17.180;2023-04-24T00:06:07;17.60;;;15.50;;
47912;SDS011;33676;51.006;17.180;2023-04-24T00:08:38;20.00;;;15.70;;
47912;SDS011;33676;51.006;17.180;2023-04-24T00:11:09;16.70;;;15.00;;
47912;SDS011;33676;51.006;17.180;2023-04-24T00:13:38;17.20;;;15.60;;
47912;SDS011;33676;51.006;17.180;2023-04-24T00:16:06;20.20;;;18.20;;
47912;SDS011;33676;51.006;17.180;2023-04-24T00:18:35;18.80;;;16.40;;
47912;SDS011;33676;51.006;17.180;2023-04-24T00:21:03;19.80;;;16.70;;
47912;SDS011;33676;51.006;17.180;2023-04-24T00:23:32;25.20;;;18.10;;
47912;SDS011;33676;51.006;17.180;2023-04-24T00:26:01;19.10;;;17.10;;
47912;SDS011;33676;51.006;17.180;2023-04-24T00:28:30;17.90;;;15.70;;
47912;SDS011;33676;51.006;17.180;2023-04-24T00:30:58;17.70;;;16.00;;
47912;SDS011;33676;51.006;17.180;2023-04-24T00:33:27;19.10;;;17.20;;
47912;SDS011;33676;51.006;17.180;2023-04-24T00:35:55;20.80;;;16.30;;
47912;SDS011;33676;51.006;17.180;2023-04-24T00:38:24;20.50;;;18.40;;
47912;SDS011;33676;51.006;17.180;2023-04-24T00:40:52;19.90;;;18.00;;
47912;SDS011;33676;51.006;17.180;2023-04-24T00:43:22;20.90;;;18.80;;
47912;SDS011;33676;51.006;17.180;2023-04-24T00:45:50;21.20;;;19.10;;
47912;SDS011;33676;51.006;17.180;2023-04-24T00:48:19;17.60;;;15.80;;
47912;SDS011;33676;51.006;17.180;2023-04-24T00:50:48;19.00;;;17.20;;
47912;SDS011;33676;51.006;17.180;2023-04-24T00:53:16;19.70;;;17.80;;
47912;SDS011;33676;51.006;17.180;2023-04-24T00:55:45;19.90;;;17.90;;
47912;SDS011;33676;51.006;17.180;2023-04-24T00:58:13;20.50;;;17.00;;
47912;SDS011;33676;51.006;17.180;2023-04-24T01:00:42;19.00;;;17.10;;
47912;SDS011;33676;51.006;17.180;2023-04-24T01:03:12;17.90;;;16.10;;
47912;SDS011;33676;51.006;17.180;2023-04-24T01:05:41;19.80;;;17.80;;
47912;SDS011;33676;51.006;17.180;2023-04-24T01:08:10;18.90;;;17.00;;
47912;SDS011;33676;51.006;17.180;2023-04-24T01:10:39;19.20;;;17.40;;
47912;SDS011;33676;51.006;17.180;2023-04-24T01:13:08;18.60;;;16.60;;
47912;SDS011;33676;51.006;17.180;2023-04-24T01:15:37;18.10;;;16.40;;
47912;SDS011;33676;51.006;17.180;2023-04-24T01:18:06;17.70;;;14.60;;
47912;SDS011;33676;51.006;17.180;2023-04-24T01:20:34;17.10;;;15.40;;
47912;SDS011;33676;51.006;17.180;2023-04-24T01:23:04;19.20;;;16.50;;
47912;SDS011;33676;51.006;17.180;2023-04-24T01:25:34;16.70;;;15.10;;
47912;SDS011;33676;51.006;17.180;2023-04-24T01:28:03;17.80;;;16.00;;
47912;SDS011;33676;51.006;17.180;2023-04-24T01:30:33;16.90;;;15.30;;
47912;SDS011;33676;51.006;17.180;2023-04-24T01:33:02;15.90;;;14.20;;
47912;SDS011;33676;51.006;17.180;2023-04-24T01:35:31;14.60;;;13.20;;
47912;SDS011;33676;51.006;17.180;2023-04-24T01:37:59;14.40;;;13.10;;
47912;SDS011;33676;51.006;17.180;2023-04-24T01:40:27;14.00;;;12.70;;
47912;SDS011;33676;51.006;17.180;2023-04-24T01:42:57;12.50;;;11.50;;
47912;SDS011;33676;51.006;17.180;2023-04-24T01:45:26;14.00;;;11.80;;
47912;SDS011;33676;51.006;17.180;2023-04-24T01:47:54;14.20;;;13.00;;
47912;SDS011;33676;51.006;17.180;2023-04-24T01:50:23;12.90;;;11.60;;
47912;SDS011;33676;51.006;17.180;2023-04-24T01:52:52;14.00;;;12.60;;
47912;SDS011;33676;51.006;17.180;2023-04-24T01:55:20;14.40;;;13.10;;
47912;SDS011;33676;51.006;17.180;2023-04-24T01:57:49;13.20;;;11.90;;
47912;SDS011;33676;51.006;17.180;2023-04-24T02:00:18;14.20;;;12.80;;
47912;SDS011;33676;51.006;17.180;2023-04-24T02:02:46;12.80;;;11.60;;
47912;SDS011;33676;51.006;17.180;2023-04-24T02:05:16;12.70;;;11.60;;
47912;SDS011;33676;51.006;17.180;2023-04-24T02:07:44;12.20;;;11.10;;
47912;SDS011;33676;51.006;17.180;2023-04-24T02:10:13;13.60;;;10.90;;
47912;SDS011;33676;51.006;17.180;2023-04-24T02:12:41;13.70;;;12.50;;
47912;SDS011;33676;51.006;17.180;2023-04-24T02:15:13;13.10;;;11.90;;
47912;SDS011;33676;51.006;17.180;2023-04-24T02:17:41;12.30;;;11.20;;
47912;SDS011;33676;51.006;17.180;2023-04-24T02:20:10;13.00;;;11.70;;
47912;SDS011;33676;51.006;17.180;2023-04-24T02:22:38;14.10;;;12.70;;
47912;SDS011;33676;51.006;17.180;2023-04-24T02:25:07;13.70;;;11.60;;
47912;SDS011;33676;51.006;17.180;2023-04-24T02:27:36;13.30;;;12.10;;
47912;SDS011;33676;51.006;17.180;2023-04-24T02:30:05;14.60;;;13.30;;
47912;SDS011;33676;51.006;17.180;2023-04-24T02:32:35;14.60;;;11.70;;
47912;SDS011;33676;51.006;17.180;2023-04-24T02:35:04;13.70;;;12.50;;
47912;SDS011;33676;51.006;17.180;2023-04-24T02:37:34;11.90;;;10.80;;
47912;SDS011;33676;51.006;17.180;2023-04-24T02:40:02;13.20;;;11.90;;
47912;SDS011;33676;51.006;17.180;2023-04-24T02:42:31;12.80;;;11.50;;
47912;SDS011;33676;51.006;17.180;2023-04-24T02:44:59;14.00;;;12.80;;
47912;SDS011;33676;51.006;17.180;2023-04-24T02:47:28;13.90;;;12.60;;
47912;SDS011;33676;51.006;17.180;2023-04-24T02:49:56;14.20;;;12.80;;
47912;SDS011;33676;51.006;17.180;2023-04-24T02:52:24;14.10;;;12.70;;
47912;SDS011;33676;51.006;17.180;2023-04-24T02:54:53;13.80;;;12.50;;
47912;SDS011;33676;51.006;17.180;2023-04-24T02:57:22;13.50;;;12.20;;
47912;SDS011;33676;51.006;17.180;2023-04-24T02:59:50;13.90;;;12.60;;
47912;SDS011;33676;51.006;17.180;2023-04-24T03:02:19;13.80;;;12.30;;
47912;SDS011;33676;51.006;17.180;2023-04-24T03:04:49;15.30;;;13.90;;
47912;SDS011;33676;51.006;17.180;2023-04-24T03:07:17;14.70;;;13.30;;
47912;SDS011;33676;51.006;17.180;2023-04-24T03:09:48;14.40;;;13.00;;
47912;SDS011;33676;51.006;17.180;2023-04-24T03:12:17;14.30;;;13.10;;
47912;SDS011;33676;51.006;17.180;2023-04-24T03:14:48;16.20;;;12.30;;
47912;SDS011;33676;51.006;17.180;2023-04-24T03:17:16;13.90;;;12.70;;
47912;SDS011;33676;51.006;17.180;2023-04-24T03:19:44;14.70;;;13.30;;
47912;SDS011;33676;51.006;17.180;2023-04-24T03:22:13;15.20;;;13.70;;
47912;SDS011;33676;51.006;17.180;2023-04-24T03:24:41;15.50;;;13.70;;
47912;SDS011;33676;51.006;17.180;2023-04-24T03:27:10;15.30;;;13.40;;
47912;SDS011;33676;51.006;17.180;2023-04-24T03:29:38;13.70;;;12.30;;
47912;SDS011;33676;51.006;17.180;2023-04-24T03:32:07;19.10;;;14.30;;
47912;SDS011;33676;51.006;17.180;2023-04-24T03:34:35;14.20;;;12.70;;
47912;SDS011;33676;51.006;17.180;2023-04-24T03:37:04;13.70;;;12.40;;
47912;SDS011;33676;51.006;17.180;2023-04-24T03:39:32;17.00;;;13.30;;
47912;SDS011;33676;51.006;17.180;2023-04-24T03:42:01;15.10;;;13.60;;
47912;SDS011;33676;51.006;17.180;2023-04-24T03:44:29;15.20;;;13.60;;
47912;SDS011;33676;51.006;17.180;2023-04-24T03:46:58;15.30;;;13.80;;
47912;SDS011;33676;51.006;17.180;2023-04-24T03:49:26;15.30;;;13.70;;
47912;SDS011;33676;51.006;17.180;2023-04-24T03:51:55;15.00;;;13.80;;
47912;SDS011;33676;51.006;17.180;2023-04-24T03:54:23;14.50;;;13.10;;
47912;SDS011;33676;51.006;17.180;2023-04-24T03:56:51;15.80;;;14.40;;
47912;SDS011;33676;51.006;17.180;2023-04-24T03:59:20;15.90;;;14.40;;
47912;SDS011;33676;51.006;17.180;2023-04-24T04:01:48;14.70;;;13.40;;
47912;SDS011;33676;51.006;17.180;2023-04-24T04:04:17;15.60;;;14.20;;
47912;SDS011;33676;51.006;17.180;2023-04-24T04:06:45;14.60;;;13.30;;
47912;SDS011;33676;51.006;17.180;2023-04-24T04:09:14;15.50;;;14.10;;
47912;SDS011;33676;51.006;17.180;2023-04-24T04:11:43;14.60;;;13.10;;
47912;SDS011;33676;51.006;17.180;2023-04-24T04:14:11;14.80;;;13.10;;
47912;SDS011;33676;51.006;17.180;2023-04-24T04:16:40;15.00;;;13.60;;
47912;SDS011;33676;51.006;17.180;2023-04-24T04:19:09;14.90;;;13.40;;
47912;SDS011;33676;51.006;17.180;2023-04-24T04:21:37;14.10;;;12.90;;
47912;SDS011;33676;51.006;17.180;2023-04-24T04:24:05;14.10;;;12.70;;
47912;SDS011;33676;51.006;17.180;2023-04-24T04:26:35;15.10;;;13.40;;
47912;SDS011;33676;51.006;17.180;2023-04-24T04:29:05;14.90;;;13.40;;
47912;SDS011;33676;51.006;17.180;2023-04-24T04:31:34;15.40;;;14.20;;
47912;SDS011;33676;51.006;17.180;2023-04-24T04:34:03;18.80;;;14.70;;
47912;SDS011;33676;51.006;17.180;2023-04-24T04:36:31;16.10;;;14.60;;
47912;SDS011;33676;51.006;17.180;2023-04-24T04:39:05;16.60;;;15.00;;
47912;SDS011;33676;51.006;17.180;2023-04-24T04:41:33;15.90;;;14.50;;
47912;SDS011;33676;51.006;17.180;2023-04-24T04:44:05;16.30;;;14.00;;
47912;SDS011;33676;51.006;17.180;2023-04-24T04:46:34;16.50;;;14.90;;
47912;SDS011;33676;51.006;17.180;2023-04-24T04:49:05;16.70;;;15.00;;
47912;SDS011;33676;51.006;17.180;2023-04-24T04:51:34;16.40;;;13.30;;
47912;SDS011;33676;51.006;17.180;2023-04-24T04:54:02;16.40;;;14.80;;
47912;SDS011;33676;51.006;17.180;2023-04-24T04:56:31;14.30;;;13.10;;
47912;SDS011;33676;51.006;17.180;2023-04-24T04:58:59;16.10;;;14.50;;
47912;SDS011;33676;51.006;17.180;2023-04-24T05:01:28;16.40;;;14.90;;
47912;SDS011;33676;51.006;17.180;2023-04-24T05:03:56;13.10;;;11.90;;
47912;SDS011;33676;51.006;17.180;2023-04-24T05:06:25;14.10;;;12.90;;
47912;SDS011;33676;51.006;17.180;2023-04-24T05:08:54;15.70;;;14.20;;
47912;SDS011;33676;51.006;17.180;2023-04-24T05:11:25;17.00;;;14.50;;
47912;SDS011;33676;51.006;17.180;2023-04-24T05:13:54;16.90;;;15.30;;
47912;SDS011;33676;51.006;17.180;2023-04-24T05:16:23;15.40;;;13.90;;
47912;SDS011;33676;51.006;17.180;2023-04-24T05:18:51;15.90;;;13.20;;
47912;SDS011;33676;51.006;17.180;2023-04-24T05:21:20;19.90;;;14.30;;
47912;SDS011;33676;51.006;17.180;2023-04-24T05:23:48;16.60;;;13.70;;
47912;SDS011;33676;51.006;17.180;2023-04-24T05:26:17;12.80;;;11.70;;
47912;SDS011;33676;51.006;17.180;2023-04-24T05:28:45;14.50;;;12.40;;
47912;SDS011;33676;51.006;17.180;2023-04-24T05:31:14;13.60;;;12.30;;
47912;SDS011;33676;51.006;17.180;2023-04-24T05:33:42;14.70;;;13.30;;
47912;SDS011;33676;51.006;17.180;2023-04-24T05:36:11;15.00;;;13.50;;
47912;SDS011;33676;51.006;17.180;2023-04-24T05:38:40;14.10;;;12.70;;
47912;SDS011;33676;51.006;17.180;2023-04-24T05:41:10;12.80;;;11.70;;
47912;SDS011;33676;51.006;17.180;2023-04-24T05:43:38;11.90;;;10.90;;
47912;SDS011;33676;51.006;17.180;2023-04-24T05:46:07;13.30;;;11.90;;
47912;SDS011;33676;51.006;17.180;2023-04-24T05:48:36;11.70;;;10.50;;
47912;SDS011;33676;51.006;17.180;2023-04-24T05:51:06;11.00;;;10.00;;
47912;SDS011;33676;51.006;17.180;2023-04-24T05:53:35;12.80;;;10.10;;
47912;SDS011;33676;51.006;17.180;2023-04-24T05:56:06;11.70;;;10.60;;
47912;SDS011;33676;51.006;17.180;2023-04-24T05:58:35;11.80;;;10.60;;
47912;SDS011;33676;51.006;17.180;2023-04-24T06:01:07;12.00;;;10.90;;
47912;SDS011;33676;51.006;17.180;2023-04-24T06:03:41;12.30;;;11.10;;
47912;SDS011;33676;51.006;17.180;2023-04-24T06:06:10;12.80;;;11.50;;
47912;SDS011;33676;51.006;17.180;2023-04-24T06:08:41;9.80;;;8.80;;
47912;SDS011;33676;51.006;17.180;2023-04-24T06:11:13;9.90;;;7.40;;
47912;SDS011;33676;51.006;17.180;2023-04-24T06:13:43;9.10;;;7.80;;
47912;SDS011;33676;51.006;17.180;2023-04-24T06:16:12;9.90;;;9.20;;
47912;SDS011;33676;51.006;17.180;2023-04-24T06:18:41;8.20;;;7.50;;
47912;SDS011;33676;51.006;17.180;2023-04-24T06:21:10;10.00;;;9.10;;
47912;SDS011;33676;51.006;17.180;2023-04-24T06:23:40;7.40;;;6.80;;
47912;SDS011;33676;51.006;17.180;2023-04-24T06:26:09;9.70;;;6.80;;
47912;SDS011;33676;51.006;17.180;2023-04-24T06:28:38;7.30;;;6.70;;
47912;SDS011;33676;51.006;17.180;2023-04-24T06:31:07;8.70;;;7.90;;
47912;SDS011;33676;51.006;17.180;2023-04-24T06:33:37;8.30;;;7.60;;
47912;SDS011;33676;51.006;17.180;2023-04-24T06:36:05;8.90;;;8.10;;
47912;SDS011;33676;51.006;17.180;2023-04-24T06:38:35;8.50;;;7.70;;
47912;SDS011;33676;51.006;17.180;2023-04-24T06:41:04;8.40;;;7.70;;
47912;SDS011;33676;51.006;17.180;2023-04-24T06:43:33;7.90;;;7.10;;
47912;SDS011;33676;51.006;17.180;2023-04-24T06:46:01;8.10;;;6.90;;
47912;SDS011;33676;51.006;17.180;2023-04-24T06:48:31;7.90;;;7.10;;
47912;SDS011;33676;51.006;17.180;2023-04-24T06:51:00;7.00;;;6.40;;
47912;SDS011;33676;51.006;17.180;2023-04-24T06:53:28;8.70;;;7.80;;
47912;SDS011;33676;51.006;17.180;2023-04-24T06:55:57;9.60;;;7.20;;
47912;SDS011;33676;51.006;17.180;2023-04-24T06:58:27;8.00;;;7.30;;
47912;SDS011;33676;51.006;17.180;2023-04-24T07:00:57;7.50;;;6.80;;
47912;SDS011;33676;51.006;17.180;2023-04-24T07:03:26;6.50;;;6.00;;
47912;SDS011;33676;51.006;17.180;2023-04-24T07:05:55;7.30;;;6.70;;
47912;SDS011;33676;51.006;17.180;2023-04-24T07:08:29;6.50;;;5.90;;
47912;SDS011;33676;51.006;17.180;2023-04-24T07:11:30;8.10;;;7.30;;
47912;SDS011;33676;51.006;17.180;2023-04-24T07:14:00;7.20;;;6.60;;
47912;SDS011;33676;51.006;17.180;2023-04-24T07:28:41;7.50;;;6.90;;
47912;SDS011;33676;51.006;17.180;2023-04-24T07:31:43;5.70;;;5.30;;
47912;SDS011;33676;51.006;17.180;2023-04-24T07:34:12;6.10;;;5.50;;
47912;SDS011;33676;51.006;17.180;2023-04-24T07:36:51;6.70;;;6.10;;
47912;SDS011;33676;51.006;17.180;2023-04-24T07:48:27;5.90;;;5.20;;
47912;SDS011;33676;51.006;17.180;2023-04-24T07:50:56;6.50;;;5.90;;
47912;SDS011;33676;51.006;17.180;2023-04-24T07:53:29;6.40;;;5.80;;
47912;SDS011;33676;51.006;17.180;2023-04-24T07:55:58;5.70;;;5.20;;
47912;SDS011;33676;51.006;17.180;2023-04-24T07:58:34;5.80;;;5.30;;
47912;SDS011;33676;51.006;17.180;2023-04-24T08:01:18;11.80;;;6.70;;
47912;SDS011;33676;51.006;17.180;2023-04-24T08:03:47;5.70;;;5.00;;
47912;SDS011;33676;51.006;17.180;2023-04-24T08:06:16;6.90;;;6.00;;
47912;SDS011;33676;51.006;17.180;2023-04-24T08:08:46;6.10;;;5.70;;
47912;SDS011;33676;51.006;17.180;2023-04-24T08:11:14;6.00;;;5.40;;
47912;SDS011;33676;51.006;17.180;2023-04-24T08:13:43;7.30;;;6.60;;
47912;SDS011;33676;51.006;17.180;2023-04-24T08:16:12;8.40;;;7.00;;
47912;SDS011;33676;51.006;17.180;2023-04-24T08:18:56;7.70;;;7.10;;
47912;SDS011;33676;51.006;17.180;2023-04-24T08:21:34;6.50;;;6.00;;
47912;SDS011;33676;51.006;17.180;2023-04-24T08:24:37;7.20;;;6.50;;
47912;SDS011;33676;51.006;17.180;2023-04-24T08:27:38;6.80;;;6.20;;
47912;SDS011;33676;51.006;17.180;2023-04-24T08:30:22;6.60;;;6.10;;
47912;SDS011;33676;51.006;17.180;2023-04-24T08:32:56;6.80;;;6.20;;
47912;SDS011;33676;51.006;17.180;2023-04-24T08:35:25;8.00;;;6.40;;
47912;SDS011;33676;51.006;17.180;2023-04-24T08:37:53;6.40;;;5.80;;
47912;SDS011;33676;51.006;17.180;2023-04-24T08:40:26;6.50;;;5.90;;
47912;SDS011;33676;51.006;17.180;2023-04-24T08:42:59;7.50;;;6.90;;
47912;SDS011;33676;51.006;17.180;2023-04-24T08:45:29;7.40;;;6.80;;
47912;SDS011;33676;51.006;17.180;2023-04-24T08:47:59;5.30;;;4.90;;
47912;SDS011;33676;51.006;17.180;2023-04-24T08:50:28;6.90;;;6.30;;
47912;SDS011;33676;51.006;17.180;2023-04-24T08:52:58;6.30;;;5.60;;
47912;SDS011;33676;51.006;17.180;2023-04-24T08:55:27;5.80;;;5.30;;
47912;SDS011;33676;51.006;17.180;2023-04-24T08:57:59;8.10;;;5.80;;
47912;SDS011;33676;51.006;17.180;2023-04-24T09:00:30;6.50;;;6.00;;
47912;SDS011;33676;51.006;17.180;2023-04-24T09:03:02;6.30;;;5.80;;
47912;SDS011;33676;51.006;17.180;2023-04-24T09:05:35;6.10;;;5.50;;
47912;SDS011;33676;51.006;17.180;2023-04-24T09:08:04;6.40;;;5.90;;
47912;SDS011;33676;51.006;17.180;2023-04-24T09:10:52;6.10;;;5.60;;
47912;SDS011;33676;51.006;17.180;2023-04-24T09:13:25;6.50;;;5.90;;
47912;SDS011;33676;51.006;17.180;2023-04-24T09:15:57;6.40;;;5.90;;
47912;SDS011;33676;51.006;17.180;2023-04-24T09:18:33;5.80;;;5.50;;
47912;SDS011;33676;51.006;17.180;2023-04-24T09:21:09;6.70;;;6.20;;
47912;SDS011;33676;51.006;17.180;2023-04-24T09:23:38;6.80;;;5.50;;
47912;SDS011;33676;51.006;17.180;2023-04-24T09:26:07;5.50;;;5.10;;
47912;SDS011;33676;51.006;17.180;2023-04-24T09:28:40;5.70;;;5.30;;
47912;SDS011;33676;51.006;17.180;2023-04-24T09:31:14;5.90;;;5.40;;
47912;SDS011;33676;51.006;17.180;2023-04-24T09:34:00;6.00;;;5.40;;
47912;SDS011;33676;51.006;17.180;2023-04-24T09:36:55;5.80;;;5.30;;
47912;SDS011;33676;51.006;17.180;2023-04-24T09:39:24;6.30;;;5.50;;
47912;SDS011;33676;51.006;17.180;2023-04-24T09:41:54;6.20;;;5.80;;
47912;SDS011;33676;51.006;17.180;2023-04-24T09:44:27;6.80;;;6.30;;
47912;SDS011;33676;51.006;17.180;2023-04-24T09:46:58;6.00;;;5.50;;
47912;SDS011;33676;51.006;17.180;2023-04-24T09:49:30;6.40;;;5.90;;
47912;SDS011;33676;51.006;17.180;2023-04-24T09:52:10;6.30;;;5.90;;
47912;SDS011;33676;51.006;17.180;2023-04-24T09:54:39;5.50;;;4.90;;
47912;SDS011;33676;51.006;17.180;2023-04-24T09:57:08;6.30;;;5.70;;
47912;SDS011;33676;51.006;17.180;2023-04-24T09:59:42;5.60;;;5.20;;
47912;SDS011;33676;51.006;17.180;2023-04-24T10:02:19;5.80;;;5.40;;
47912;SDS011;33676;51.006;17.180;2023-04-24T10:04:56;6.70;;;6.10;;
47912;SDS011;33676;51.006;17.180;2023-04-24T10:07:28;6.50;;;6.10;;
47912;SDS011;33676;51.006;17.180;2023-04-24T10:09:57;6.20;;;5.70;;
47912;SDS011;33676;51.006;17.180;2023-04-24T10:12:26;5.50;;;5.10;;
47912;SDS011;33676;51.006;17.180;2023-04-24T10:14:57;6.40;;;5.80;;
47912;SDS011;33676;51.006;17.180;2023-04-24T10:17:26;6.80;;;6.20;;
47912;SDS011;33676;51.006;17.180;2023-04-24T10:19:56;10.10;;;7.20;;
47912;SDS011;33676;51.006;17.180;2023-04-24T10:22:26;7.00;;;6.50;;
47912;SDS011;33676;51.006;17.180;2023-04-24T10:24:55;8.30;;;6.30;;
47912;SDS011;33676;51.006;17.180;2023-04-24T10:27:26;10.90;;;7.20;;
47912;SDS011;33676;51.006;17.180;2023-04-24T10:29:55;7.10;;;6.40;;
47912;SDS011;33676;51.006;17.180;2023-04-24T10:32:27;6.80;;;6.30;;
47912;SDS011;33676;51.006;17.180;2023-04-24T10:34:55;7.00;;;5.90;;
47912;SDS011;33676;51.006;17.180;2023-04-24T10:37:25;6.00;;;5.30;;
47912;SDS011;33676;51.006;17.180;2023-04-24T10:39:55;7.70;;;6.90;;
47912;SDS011;33676;51.006;17.180;2023-04-24T10:42:24;5.90;;;5.50;;
47912;SDS011;33676;51.006;17.180;2023-04-24T10:44:55;6.40;;;5.90;;
47912;SDS011;33676;51.006;17.180;2023-04-24T10:47:26;6.20;;;5.40;;
47912;SDS011;33676;51.006;17.180;2023-04-24T10:49:54;8.70;;;6.10;;
47912;SDS011;33676;51.006;17.180;2023-04-24T10:52:44;5.60;;;5.20;;
47912;SDS011;33676;51.006;17.180;2023-04-24T10:55:13;6.10;;;5.70;;
47912;SDS011;33676;51.006;17.180;2023-04-24T10:58:02;5.50;;;5.10;;
47912;SDS011;33676;51.006;17.180;2023-04-24T11:00:36;6.70;;;6.10;;
47912;SDS011;33676;51.006;17.180;2023-04-24T11:06:03;5.40;;;5.00;;
47912;SDS011;33676;51.006;17.180;2023-04-24T11:08:43;6.40;;;6.00;;
47912;SDS011;33676;51.006;17.180;2023-04-24T11:11:14;6.60;;;6.10;;
47912;SDS011;33676;51.006;17.180;2023-04-24T11:19:23;6.40;;;5.80;;
47912;SDS011;33676;51.006;17.180;2023-04-24T11:22:17;6.40;;;5.90;;
47912;SDS011;33676;51.006;17.180;2023-04-24T11:27:20;6.90;;;6.40;;
47912;SDS011;33676;51.006;17.180;2023-04-24T11:32:42;4.90;;;4.60;;
47912;SDS011;33676;51.006;17.180;2023-04-24T11:35:18;5.60;;;5.10;;
47912;SDS011;33676;51.006;17.180;2023-04-24T11:37:49;5.70;;;5.10;;
47912;SDS011;33676;51.006;17.180;2023-04-24T11:40:22;5.80;;;4.50;;
47912;SDS011;33676;51.006;17.180;2023-04-24T11:42:53;5.20;;;4.80;;
47912;SDS011;33676;51.006;17.180;2023-04-24T11:45:49;5.30;;;4.90;;
47912;SDS011;33676;51.006;17.180;2023-04-24T11:48:19;5.20;;;4.90;;
47912;SDS011;33676;51.006;17.180;2023-04-24T11:50:51;6.00;;;5.50;;
47912;SDS011;33676;51.006;17.180;2023-04-24T11:53:20;5.80;;;5.30;;
47912;SDS011;33676;51.006;17.180;2023-04-24T11:55:50;5.80;;;5.40;;
47912;SDS011;33676;51.006;17.180;2023-04-24T11:58:21;9.60;;;5.70;;
47912;SDS011;33676;51.006;17.180;2023-04-24T12:00:59;5.50;;;5.10;;
47912;SDS011;33676;51.006;17.180;2023-04-24T12:03:29;5.00;;;4.60;;
47912;SDS011;33676;51.006;17.180;2023-04-24T12:06:08;5.90;;;5.50;;
47912;SDS011;33676;51.006;17.180;2023-04-24T12:08:40;5.70;;;5.30;;
47912;SDS011;33676;51.006;17.180;2023-04-24T12:11:09;7.10;;;6.60;;
47912;SDS011;33676;51.006;17.180;2023-04-24T12:13:38;6.20;;;5.60;;
47912;SDS011;33676;51.006;17.180;2023-04-24T12:16:06;5.90;;;5.30;;
47912;SDS011;33676;51.006;17.180;2023-04-24T12:18:44;6.10;;;5.50;;
47912;SDS011;33676;51.006;17.180;2023-04-24T12:21:20;6.60;;;5.90;;
47912;SDS011;33676;51.006;17.180;2023-04-24T12:23:54;5.90;;;5.50;;
47912;SDS011;33676;51.006;17.180;2023-04-24T12:26:23;5.90;;;5.40;;
47912;SDS011;33676;51.006;17.180;2023-04-24T12:28:52;5.90;;;5.30;;
47912;SDS011;33676;51.006;17.180;2023-04-24T12:31:21;6.30;;;5.90;;
47912;SDS011;33676;51.006;17.180;2023-04-24T12:33:49;5.70;;;5.30;;
47912;SDS011;33676;51.006;17.180;2023-04-24T12:36:18;5.80;;;5.40;;
47912;SDS011;33676;51.006;17.180;2023-04-24T12:38:52;6.10;;;5.70;;
47912;SDS011;33676;51.006;17.180;2023-04-24T12:41:21;6.90;;;6.40;;
47912;SDS011;33676;51.006;17.180;2023-04-24T12:43:53;6.30;;;5.80;;
47912;SDS011;33676;51.006;17.180;2023-04-24T12:46:23;7.40;;;6.70;;
47912;SDS011;33676;51.006;17.180;2023-04-24T12:48:52;6.40;;;5.70;;
47912;SDS011;33676;51.006;17.180;2023-04-24T12:51:24;6.80;;;6.20;;
47912;SDS011;33676;51.006;17.180;2023-04-24T12:53:52;6.40;;;5.90;;
47912;SDS011;33676;51.006;17.180;2023-04-24T12:56:24;7.20;;;6.60;;
47912;SDS011;33676;51.006;17.180;2023-04-24T12:58:53;7.70;;;6.60;;
47912;SDS011;33676;51.006;17.180;2023-04-24T13:01:21;7.00;;;6.60;;
47912;SDS011;33676;51.006;17.180;2023-04-24T13:03:50;11.50;;;7.00;;
47912;SDS011;33676;51.006;17.180;2023-04-24T13:06:18;7.30;;;6.60;;
47912;SDS011;33676;51.006;17.180;2023-04-24T13:08:47;6.40;;;5.90;;
47912;SDS011;33676;51.006;17.180;2023-04-24T13:11:16;7.60;;;6.90;;
47912;SDS011;33676;51.006;17.180;2023-04-24T13:13:44;7.30;;;6.80;;
47912;SDS011;33676;51.006;17.180;2023-04-24T13:16:13;7.30;;;6.60;;
47912;SDS011;33676;51.006;17.180;2023-04-24T13:18:41;7.40;;;6.60;;
47912;SDS011;33676;51.006;17.180;2023-04-24T13:21:10;7.10;;;6.50;;
47912;SDS011;33676;51.006;17.180;2023-04-24T13:23:38;8.00;;;7.10;;
47912;SDS011;33676;51.006;17.180;2023-04-24T13:26:08;7.80;;;7.20;;
47912;SDS011;33676;51.006;17.180;2023-04-24T13:28:40;7.30;;;6.70;;
47912;SDS011;33676;51.006;17.180;2023-04-24T13:31:10;9.60;;;7.40;;
47912;SDS011;33676;51.006;17.180;2023-04-24T13:33:39;8.20;;;7.50;;
47912;SDS011;33676;51.006;17.180;2023-04-24T13:36:11;8.50;;;7.70;;
47912;SDS011;33676;51.006;17.180;2023-04-24T13:38:44;9.40;;;8.00;;
47912;SDS011;33676;51.006;17.180;2023-04-24T13:41:13;10.00;;;8.40;;
47912;SDS011;33676;51.006;17.180;2023-04-24T13:43:41;9.60;;;8.80;;
47912;SDS011;33676;51.006;17.180;2023-04-24T13:46:11;8.60;;;7.90;;
47912;SDS011;33676;51.006;17.180;2023-04-24T13:48:44;9.80;;;9.00;;
47912;SDS011;33676;51.006;17.180;2023-04-24T13:51:16;5.60;;;5.10;;
47912;SDS011;33676;51.006;17.180;2023-04-24T13:53:54;2.30;;;2.10;;
47912;SDS011;33676;51.006;17.180;2023-04-24T13:56:26;3.40;;;3.10;;
47912;SDS011;33676;51.006;17.180;2023-04-24T14:11:46;0.90;;;0.80;;
47912;SDS011;33676;51.006;17.180;2023-04-24T14:14:21;4.60;;;1.60;;
47912;SDS011;33676;51.006;17.180;2023-04-24T14:17:21;2.20;;;1.10;;
47912;SDS011;33676;51.006;17.180;2023-04-24T14:20:31;2.20;;;1.60;;
47912;SDS011;33676;51.006;17.180;2023-04-24T14:23:03;2.20;;;2.00;;
47912;SDS011;33676;51.006;17.180;2023-04-24T14:25:32;1.30;;;1.30;;
47912;SDS011;33676;51.006;17.180;2023-04-24T14:28:12;4.00;;;2.10;;
47912;SDS011;33676;51.006;17.180;2023-04-24T14:30:42;2.90;;;2.50;;
47912;SDS011;33676;51.006;17.180;2023-04-24T14:33:13;5.10;;;2.40;;
47912;SDS011;33676;51.006;17.180;2023-04-24T14:37:34;2.70;;;2.20;;
47912;SDS011;33676;51.006;17.180;2023-04-24T14:40:04;2.00;;;1.80;;
47912;SDS011;33676;51.006;17.180;2023-04-24T14:42:39;1.90;;;1.80;;
47912;SDS011;33676;51.006;17.180;2023-04-24T14:45:14;2.30;;;1.60;;
47912;SDS011;33676;51.006;17.180;2023-04-24T14:47:45;2.90;;;1.70;;
47912;SDS011;33676;51.006;17.180;2023-04-24T14:50:16;2.10;;;1.90;;
47912;SDS011;33676;51.006;17.180;2023-04-24T14:52:46;1.60;;;1.50;;
47912;SDS011;33676;51.006;17.180;2023-04-24T14:55:14;2.70;;;1.80;;
47912;SDS011;33676;51.006;17.180;2023-04-24T14:57:43;3.80;;;2.30;;
47912;SDS011;33676;51.006;17.180;2023-04-24T15:00:12;3.20;;;1.80;;
47912;SDS011;33676;51.006;17.180;2023-04-24T15:02:41;3.80;;;3.50;;
47912;SDS011;33676;51.006;17.180;2023-04-24T15:05:13;5.00;;;4.30;;
47912;SDS011;33676;51.006;17.180;2023-04-24T15:07:44;5.20;;;4.70;;
47912;SDS011;33676;51.006;17.180;2023-04-24T15:10:13;4.40;;;3.60;;
47912;SDS011;33676;51.006;17.180;2023-04-24T15:12:42;3.90;;;3.60;;
47912;SDS011;33676;51.006;17.180;2023-04-24T15:15:11;10.70;;;3.60;;
47912;SDS011;33676;51.006;17.180;2023-04-24T15:17:40;3.70;;;3.40;;
47912;SDS011;33676;51.006;17.180;2023-04-24T15:20:09;5.00;;;4.00;;
47912;SDS011;33676;51.006;17.180;2023-04-24T15:22:37;4.10;;;3.80;;
47912;SDS011;33676;51.006;17.180;2023-04-24T15:25:06;4.20;;;3.50;;
47912;SDS011;33676;51.006;17.180;2023-04-24T15:27:40;3.90;;;2.70;;
47912;SDS011;33676;51.006;17.180;2023-04-24T15:30:12;3.90;;;2.70;;
47912;SDS011;33676;51.006;17.180;2023-04-24T15:32:41;2.10;;;1.80;;
47912;SDS011;33676;51.006;17.180;2023-04-24T15:35:10;2.30;;;2.00;;